createdAt,value
2017-03-29T00:00:26.568Z,16.42
2017-03-29T00:01:36.909Z,16.39
2017-03-29T00:02:47.261Z,16.49
2017-03-29T00:03:57.635Z,16.45
2017-03-29T00:05:07.675Z,16.42
2017-03-29T00:06:18.016Z,16.36
2017-03-29T00:07:28.357Z,16.32
2017-03-29T00:08:38.393Z,16.42
2017-03-29T00:09:48.414Z,16.37
2017-03-29T00:10:58.444Z,16.34
2017-03-29T00:12:08.783Z,16.33
2017-03-29T00:13:19.121Z,16.25
2017-03-29T00:14:29.146Z,16.27
2017-03-29T00:15:39.183Z,16.3
2017-03-29T00:16:49.222Z,16.3
2017-03-29T00:17:59.558Z,16.27
2017-03-29T00:19:09.926Z,16.22
2017-03-29T00:20:19.338Z,16.25
2017-03-29T00:21:29.704Z,16.18
2017-03-29T00:22:39.733Z,16.3
2017-03-29T00:23:49.784Z,16.18
2017-03-29T00:24:59.815Z,16.18
2017-03-29T00:26:09.842Z,16.21
2017-03-29T00:27:20.174Z,16.17
2017-03-29T00:28:29.892Z,16.25
2017-03-29T00:29:39.915Z,16.18
2017-03-29T00:30:50.243Z,16.29
2017-03-29T00:32:00.601Z,16.27
2017-03-29T00:33:10.938Z,16.21
2017-03-29T00:34:21.279Z,16.26
2017-03-29T00:35:31.613Z,16.26
2017-03-29T00:36:41.636Z,16.27
2017-03-29T00:37:51.964Z,16.3
2017-03-29T00:39:01.985Z,16.22
2017-03-29T00:40:12.014Z,16.18
2017-03-29T00:41:22.347Z,16.21
2017-03-29T00:42:32.056Z,16.26
2017-03-29T00:43:42.093Z,16.25
2017-03-29T00:44:52.444Z,16.25
2017-03-29T00:46:02.792Z,16.29
2017-03-29T00:47:13.131Z,16.3
2017-03-29T00:48:23.494Z,16.37
2017-03-29T00:49:33.521Z,16.4
2017-03-29T00:50:43.558Z,16.34
2017-03-29T00:51:53.898Z,16.39
2017-03-29T00:53:03.941Z,16.47
2017-03-29T00:54:14.290Z,16.33
2017-03-29T00:55:24.314Z,16.27
2017-03-29T00:56:34.662Z,16.37
2017-03-29T00:57:45.007Z,16.37
2017-03-29T00:58:55.029Z,16.42
2017-03-29T01:00:05.052Z,16.45
2017-03-29T01:01:14.763Z,16.42
2017-03-29T01:02:24.476Z,16.44
2017-03-29T01:03:34.816Z,16.44
2017-03-29T01:04:44.833Z,16.42
2017-03-29T01:05:54.546Z,16.47
2017-03-29T01:07:04.896Z,16.47
2017-03-29T01:08:14.603Z,16.48
2017-03-29T01:09:24.930Z,16.45
2017-03-29T01:10:34.648Z,16.49
2017-03-29T01:11:44.998Z,16.39
2017-03-29T01:12:55.331Z,16.49
2017-03-29T01:14:05.367Z,16.45
2017-03-29T01:15:15.694Z,16.44
2017-03-29T01:16:26.031Z,16.39
2017-03-29T01:17:36.371Z,16.45
2017-03-29T01:18:46.400Z,16.47
2017-03-29T01:19:56.781Z,16.4
2017-03-29T01:21:07.122Z,16.36
2017-03-29T01:22:17.475Z,16.37
2017-03-29T01:23:27.509Z,16.33
2017-03-29T01:24:37.538Z,16.34
2017-03-29T01:25:47.879Z,16.45
2017-03-29T01:26:58.237Z,16.44
2017-03-29T01:28:07.963Z,16.39
2017-03-29T01:29:18.298Z,16.42
2017-03-29T01:30:28.661Z,16.33
2017-03-29T01:31:39.222Z,16.32
2017-03-29T01:32:49.242Z,16.36
2017-03-29T01:33:59.256Z,16.37
2017-03-29T01:35:08.974Z,16.34
2017-03-29T01:36:19.329Z,16.33
2017-03-29T01:37:29.356Z,16.39
2017-03-29T01:38:39.692Z,16.29
2017-03-29T01:39:49.728Z,16.25
2017-03-29T01:41:00.079Z,16.26
2017-03-29T01:42:10.122Z,16.26
2017-03-29T01:43:19.839Z,16.25
2017-03-29T01:44:29.557Z,16.11
2017-03-29T01:45:39.890Z,16.18
2017-03-29T01:46:50.230Z,16.14
2017-03-29T01:48:00.572Z,16.1
2017-03-29T01:49:10.914Z,16.04
2017-03-29T01:50:21.241Z,15.98
2017-03-29T01:51:31.609Z,15.98
2017-03-29T01:52:41.966Z,15.93
2017-03-29T01:53:51.990Z,15.95
2017-03-29T01:55:02.352Z,15.98
2017-03-29T01:56:12.692Z,15.83
2017-03-29T01:57:23.042Z,15.86
2017-03-29T01:58:33.373Z,15.81
2017-03-29T01:59:43.734Z,15.75
2017-03-29T02:00:53.801Z,15.8
2017-03-29T02:02:04.132Z,15.74
2017-03-29T02:03:14.470Z,15.75
2017-03-29T02:04:24.486Z,15.67
2017-03-29T02:05:34.732Z,15.68
2017-03-29T02:06:44.435Z,15.59
2017-03-29T02:07:54.447Z,15.62
2017-03-29T02:09:04.481Z,15.58
2017-03-29T02:10:14.508Z,15.6
2017-03-29T02:11:24.525Z,15.62
2017-03-29T02:12:34.867Z,15.52
2017-03-29T02:13:44.928Z,15.58
2017-03-29T02:14:55.273Z,15.62
2017-03-29T02:16:05.635Z,15.58
2017-03-29T02:17:15.365Z,15.58
2017-03-29T02:18:25.705Z,15.63
2017-03-29T02:19:35.418Z,15.59
2017-03-29T02:20:45.452Z,15.55
2017-03-29T02:21:55.492Z,15.55
2017-03-29T02:23:05.833Z,15.6
2017-03-29T02:24:15.855Z,15.55
2017-03-29T02:25:26.221Z,15.58
2017-03-29T02:26:36.256Z,15.58
2017-03-29T02:27:46.627Z,15.51
2017-03-29T02:28:56.966Z,15.45
2017-03-29T02:30:07.312Z,15.45
2017-03-29T02:31:17.701Z,15.47
2017-03-29T02:32:27.731Z,15.47
2017-03-29T02:33:38.077Z,15.45
2017-03-29T02:34:48.440Z,15.53
2017-03-29T02:35:58.787Z,15.43
2017-03-29T02:37:08.798Z,15.55
2017-03-29T02:38:18.819Z,15.44
2017-03-29T02:39:28.837Z,15.47
2017-03-29T02:40:39.172Z,15.47
2017-03-29T02:41:49.194Z,15.44
2017-03-29T02:42:59.536Z,15.41
2017-03-29T02:44:09.903Z,15.4
2017-03-29T02:45:20.251Z,15.4
2017-03-29T02:46:30.588Z,15.4
2017-03-29T02:47:40.927Z,15.27
2017-03-29T02:48:51.014Z,15.27
2017-03-29T02:50:01.042Z,15.3
2017-03-29T02:51:11.366Z,15.27
2017-03-29T02:52:21.702Z,15.2
2017-03-29T02:53:32.047Z,15.18
2017-03-29T02:54:42.369Z,15.18
2017-03-29T02:55:52.691Z,15.19
2017-03-29T02:57:02.746Z,15.2
2017-03-29T02:58:12.778Z,15.19
2017-03-29T02:59:23.114Z,15.25
2017-03-29T03:00:33.472Z,15.27
2017-03-29T03:32:21.208Z,12.26
2017-03-29T03:33:31.551Z,12.15
2017-03-29T03:34:41.891Z,12.22
2017-03-29T03:35:52.222Z,12.13
2017-03-29T03:37:02.241Z,12.23
2017-03-29T03:38:12.567Z,12.41
2017-03-29T03:39:22.590Z,12.48
2017-03-29T03:40:32.617Z,12.53
2017-03-29T03:41:42.948Z,12.66
2017-03-29T03:42:53.333Z,12.92
2017-03-29T03:44:03.362Z,13.01
2017-03-29T03:45:13.713Z,13.14
2017-03-29T03:46:23.730Z,13.28
2017-03-29T03:47:34.110Z,13.36
2017-03-29T03:48:43.837Z,13.53
2017-03-29T03:49:54.177Z,13.6
2017-03-29T03:51:04.202Z,13.66
2017-03-29T03:52:14.586Z,13.78
2017-03-29T03:53:24.924Z,13.87
2017-03-29T03:54:35.270Z,13.91
2017-03-29T03:55:45.297Z,14.05
2017-03-29T03:56:55.633Z,14.08
2017-03-29T03:58:05.971Z,14.21
2017-03-29T03:59:16.309Z,14.21
2017-03-29T04:00:26.642Z,14.34
2017-03-29T04:01:36.977Z,14.31
2017-03-29T04:02:46.717Z,14.46
2017-03-29T04:03:57.056Z,14.52
2017-03-29T04:05:06.766Z,14.53
2017-03-29T04:06:16.483Z,14.52
2017-03-29T04:07:26.820Z,14.56
2017-03-29T04:08:37.191Z,14.59
2017-03-29T04:09:47.548Z,14.59
2017-03-29T04:10:57.591Z,14.63
2017-03-29T04:12:07.931Z,14.56
2017-03-29T04:13:17.944Z,14.56
2017-03-29T04:14:28.278Z,14.52
2017-03-29T04:15:38.622Z,14.6
2017-03-29T04:16:48.972Z,14.61
2017-03-29T04:17:58.994Z,14.63
2017-03-29T04:19:09.026Z,14.74
2017-03-29T04:20:19.364Z,14.66
2017-03-29T04:21:29.677Z,14.59
2017-03-29T04:22:39.397Z,14.61
2017-03-29T04:23:49.145Z,14.67
2017-03-29T04:24:59.163Z,14.66
2017-03-29T04:26:09.180Z,14.63
2017-03-29T04:27:18.888Z,14.63
2017-03-29T04:28:29.241Z,14.61
2017-03-29T04:29:39.586Z,14.64
2017-03-29T04:30:49.599Z,14.64
2017-03-29T04:31:59.927Z,14.67
2017-03-29T04:33:10.259Z,14.7
2017-03-29T04:34:20.609Z,14.66
2017-03-29T04:35:30.938Z,14.63
2017-03-29T04:36:41.284Z,14.67
2017-03-29T04:37:51.640Z,14.66
2017-03-29T04:39:02.020Z,14.64
2017-03-29T04:40:12.354Z,14.67
2017-03-29T04:41:22.683Z,14.64
2017-03-29T04:42:32.713Z,14.7
2017-03-29T04:43:43.041Z,14.61
2017-03-29T04:44:53.376Z,14.59
2017-03-29T04:46:03.409Z,14.67
2017-03-29T04:47:13.736Z,14.67
2017-03-29T04:48:24.071Z,14.74
2017-03-29T04:49:34.090Z,14.71
2017-03-29T04:50:44.438Z,14.83
2017-03-29T04:51:54.779Z,14.82
2017-03-29T04:53:04.873Z,14.89
2017-03-29T04:54:15.220Z,15.07
2017-03-29T04:55:25.570Z,15.1
2017-03-29T04:56:35.617Z,15.15
2017-03-29T04:57:45.962Z,15.18
2017-03-29T04:58:56.324Z,15.34
2017-03-29T05:00:06.901Z,15.38
2017-03-29T05:01:17.217Z,15.41
2017-03-29T05:02:26.933Z,15.59
2017-03-29T05:03:36.972Z,15.75
2017-03-29T05:04:47.309Z,15.83
2017-03-29T05:05:57.345Z,15.88
2017-03-29T05:07:07.707Z,15.93
2017-03-29T05:08:17.409Z,16.06
2017-03-29T05:09:27.742Z,16.18
2017-03-29T05:10:38.077Z,16.29
2017-03-29T05:11:48.104Z,16.34
2017-03-29T05:12:58.445Z,16.36
2017-03-29T05:14:08.461Z,16.32
2017-03-29T05:15:18.475Z,16.21
2017-03-29T05:16:28.487Z,16.32
2017-03-29T05:17:38.503Z,16.36
2017-03-29T05:18:48.534Z,16.39
2017-03-29T05:19:58.872Z,16.33
2017-03-29T05:21:09.224Z,16.25
2017-03-29T05:22:19.553Z,16.37
2017-03-29T05:23:29.586Z,16.42
2017-03-29T05:24:39.611Z,16.4
2017-03-29T05:25:49.955Z,16.48
2017-03-29T05:27:00.293Z,16.47
2017-03-29T05:28:10.322Z,16.52
2017-03-29T05:29:20.658Z,16.73
2017-03-29T05:30:31.006Z,16.7
2017-03-29T05:31:41.034Z,16.77
2017-03-29T05:32:51.061Z,16.9
2017-03-29T05:34:01.096Z,16.9
2017-03-29T05:35:11.440Z,16.9
2017-03-29T05:36:21.808Z,17.05
2017-03-29T05:37:32.147Z,17.02
2017-03-29T05:38:41.850Z,17.06
2017-03-29T05:39:52.190Z,17.09
2017-03-29T05:41:02.531Z,17.07
2017-03-29T05:42:12.571Z,17.21
2017-03-29T05:43:22.609Z,17.12
2017-03-29T05:44:32.639Z,17.18
2017-03-29T05:45:42.995Z,17.28
2017-03-29T05:46:53.030Z,17.27
2017-03-29T05:48:03.367Z,17.18
2017-03-29T05:49:13.099Z,17.24
2017-03-29T05:50:23.450Z,17.36
2017-03-29T05:51:33.802Z,17.32
2017-03-29T05:52:43.814Z,17.4
2017-03-29T05:53:54.153Z,17.46
2017-03-29T05:55:04.174Z,17.45
2017-03-29T05:56:14.195Z,17.47
2017-03-29T05:57:24.551Z,17.57
2017-03-29T05:58:34.888Z,17.54
2017-03-29T05:59:45.256Z,17.62
2017-03-29T06:00:54.968Z,17.68
2017-03-29T06:02:05.012Z,17.73
2017-03-29T06:03:15.354Z,17.76
2017-03-29T06:04:25.381Z,17.81
2017-03-29T06:05:35.725Z,17.86
2017-03-29T06:06:46.068Z,17.86
2017-03-29T06:07:56.415Z,17.9
2017-03-29T06:09:06.748Z,18.03
2017-03-29T06:10:16.793Z,18.1
2017-03-29T06:11:27.148Z,18.13
2017-03-29T06:12:37.484Z,18.16
2017-03-29T06:13:47.835Z,18.17
2017-03-29T06:14:57.571Z,18.16
2017-03-29T06:16:07.912Z,18.32
2017-03-29T06:17:18.270Z,18.32
2017-03-29T06:18:28.598Z,18.39
2017-03-29T06:19:38.938Z,18.39
2017-03-29T06:20:48.950Z,18.51
2017-03-29T06:21:59.301Z,18.54
2017-03-29T06:23:09.634Z,18.63
2017-03-29T06:24:19.700Z,18.61
2017-03-29T06:25:29.426Z,18.61
2017-03-29T06:26:39.764Z,18.75
2017-03-29T06:27:49.799Z,18.84
2017-03-29T06:28:59.812Z,18.9
2017-03-29T06:30:09.838Z,18.91
2017-03-29T06:31:20.170Z,18.94
2017-03-29T06:32:30.522Z,19.07
2017-03-29T06:33:40.538Z,19.17
2017-03-29T06:34:50.562Z,19.2
2017-03-29T06:36:00.911Z,19.27
2017-03-29T06:37:11.240Z,19.34
2017-03-29T06:38:21.294Z,19.42
2017-03-29T06:39:31.317Z,19.55
2017-03-29T06:40:41.338Z,19.52
2017-03-29T06:41:51.402Z,19.63
2017-03-29T06:43:01.753Z,19.65
2017-03-29T06:44:11.786Z,19.72
2017-03-29T06:45:21.847Z,19.78
2017-03-29T06:46:32.193Z,19.87
2017-03-29T06:47:42.550Z,19.9
2017-03-29T06:48:52.580Z,19.97
2017-03-29T06:50:02.961Z,20.05
2017-03-29T06:51:13.317Z,19.98
2017-03-29T06:52:23.347Z,20.11
2017-03-29T06:53:33.378Z,20.16
2017-03-29T06:54:43.409Z,20.18
2017-03-29T06:55:53.752Z,20.2
2017-03-29T06:57:04.104Z,20.26
2017-03-29T06:58:14.138Z,20.26
2017-03-29T06:59:24.479Z,20.34
2017-03-29T07:00:34.844Z,20.34
2017-03-29T07:01:45.185Z,20.41
2017-03-29T07:02:55.233Z,20.46
2017-03-29T07:04:05.839Z,20.56
2017-03-29T07:05:16.419Z,20.49
2017-03-29T07:06:27.073Z,20.61
2017-03-29T07:07:37.428Z,20.68
2017-03-29T07:08:47.756Z,20.75
2017-03-29T07:09:58.096Z,20.82
2017-03-29T07:11:08.452Z,20.86
2017-03-29T07:12:18.800Z,20.97
2017-03-29T07:13:29.146Z,21.06
2017-03-29T07:14:39.541Z,21.12
2017-03-29T07:15:49.572Z,21.21
2017-03-29T07:16:59.914Z,21.19
2017-03-29T07:18:10.293Z,21.23
2017-03-29T07:19:20.647Z,21.34
2017-03-29T07:20:30.687Z,21.38
2017-03-29T07:21:41.050Z,21.43
2017-03-29T07:22:50.479Z,21.45
2017-03-29T07:24:00.829Z,21.53
2017-03-29T07:25:10.863Z,21.64
2017-03-29T07:26:21.228Z,21.53
2017-03-29T07:27:31.272Z,21.59
2017-03-29T07:28:41.323Z,21.64
2017-03-29T07:29:51.369Z,21.58
2017-03-29T07:31:01.707Z,21.71
2017-03-29T07:32:12.056Z,21.8
2017-03-29T07:33:22.397Z,21.86
2017-03-29T07:34:32.729Z,21.94
2017-03-29T07:35:43.083Z,21.9
2017-03-29T07:36:53.425Z,22.11
2017-03-29T07:38:03.454Z,22.11
2017-03-29T07:39:13.790Z,22.29
2017-03-29T07:40:24.132Z,22.29
2017-03-29T07:41:34.157Z,22.33
2017-03-29T07:42:44.833Z,22.26
2017-03-29T07:43:54.870Z,22.46
2017-03-29T07:45:04.273Z,22.46
2017-03-29T07:46:14.619Z,22.51
2017-03-29T07:47:24.353Z,22.52
2017-03-29T07:48:34.707Z,22.7
2017-03-29T07:49:45.059Z,22.73
2017-03-29T07:50:55.427Z,22.73
2017-03-29T07:52:05.788Z,22.76
2017-03-29T07:53:15.956Z,22.73
2017-03-29T07:54:26.304Z,22.76
2017-03-29T07:55:36.689Z,22.88
2017-03-29T07:56:46.766Z,22.91
2017-03-29T07:57:56.804Z,22.91
2017-03-29T07:59:07.200Z,22.92
2017-03-29T08:00:17.555Z,23.07
2017-03-29T08:01:27.590Z,23.14
2017-03-29T08:02:37.930Z,23.14
2017-03-29T08:03:48.296Z,23.28
2017-03-29T08:04:58.645Z,23.25
2017-03-29T08:06:08.684Z,23.32
2017-03-29T08:07:19.040Z,23.4
2017-03-29T08:08:29.075Z,23.4
2017-03-29T08:09:39.105Z,23.45
2017-03-29T08:10:49.461Z,23.41
2017-03-29T08:11:59.815Z,23.55
2017-03-29T08:13:10.158Z,23.53
2017-03-29T08:14:20.189Z,23.66
2017-03-29T08:15:30.216Z,23.6
2017-03-29T08:16:40.571Z,23.75
2017-03-29T08:17:50.607Z,23.78
2017-03-29T08:19:00.665Z,23.81
2017-03-29T08:20:11.003Z,23.84
2017-03-29T08:21:20.727Z,23.87
2017-03-29T08:22:30.763Z,23.96
2017-03-29T08:23:41.109Z,24.07
2017-03-29T08:24:51.458Z,23.93
2017-03-29T08:26:01.805Z,24
2017-03-29T08:27:12.138Z,24.08
2017-03-29T08:28:21.844Z,24.04
2017-03-29T08:29:32.209Z,24.08
2017-03-29T08:30:42.578Z,24.11
2017-03-29T08:31:52.610Z,24.15
2017-03-29T08:33:02.648Z,24.26
2017-03-29T08:34:12.986Z,24.26
2017-03-29T08:35:23.345Z,24.33
2017-03-29T08:36:33.698Z,24.33
2017-03-29T08:37:44.100Z,24.32
2017-03-29T08:38:54.135Z,24.46
2017-03-29T08:40:04.170Z,24.54
2017-03-29T08:41:14.206Z,24.58
2017-03-29T08:42:23.941Z,24.55
2017-03-29T08:43:34.301Z,24.71
2017-03-29T08:44:44.660Z,24.67
2017-03-29T08:45:55.033Z,24.61
2017-03-29T08:47:05.374Z,24.61
2017-03-29T08:48:15.726Z,24.69
2017-03-29T08:49:25.761Z,24.7
2017-03-29T08:50:36.102Z,24.82
2017-03-29T08:51:46.465Z,24.77
2017-03-29T08:52:56.533Z,24.75
2017-03-29T08:54:06.289Z,24.74
2017-03-29T08:55:16.631Z,24.82
2017-03-29T08:56:26.959Z,24.9
2017-03-29T08:57:37.355Z,24.93
2017-03-29T08:58:47.701Z,25.05
2017-03-29T08:59:58.057Z,25.15
2017-03-29T09:01:08.420Z,25.12
2017-03-29T09:02:18.454Z,25.19
2017-03-29T09:03:28.834Z,25.12
2017-03-29T09:04:38.880Z,25.26
2017-03-29T09:05:49.222Z,25.27
2017-03-29T09:06:59.576Z,25.32
2017-03-29T09:08:09.935Z,25.37
2017-03-29T09:09:19.975Z,25.39
2017-03-29T09:10:30.328Z,25.41
2017-03-29T09:11:40.368Z,25.49
2017-03-29T09:12:50.755Z,25.37
2017-03-29T09:14:01.122Z,25.37
2017-03-29T09:15:11.249Z,25.42
2017-03-29T09:16:21.596Z,25.51
2017-03-29T09:17:31.947Z,25.51
2017-03-29T09:18:42.329Z,25.54
2017-03-29T09:19:52.358Z,25.6
2017-03-29T09:21:02.697Z,25.6
2017-03-29T09:22:13.049Z,25.7
2017-03-29T09:23:23.397Z,25.56
2017-03-29T09:24:33.754Z,25.63
2017-03-29T09:25:44.124Z,25.69
2017-03-29T09:26:54.519Z,25.78
2017-03-29T09:28:04.550Z,25.79
2017-03-29T09:29:14.584Z,25.86
2017-03-29T09:30:24.937Z,25.78
2017-03-29T09:31:34.994Z,25.88
2017-03-29T09:32:44.723Z,25.93
2017-03-29T09:33:55.056Z,25.97
2017-03-29T09:35:05.450Z,26
2017-03-29T09:36:15.525Z,26.06
2017-03-29T09:37:25.876Z,26.15
2017-03-29T09:38:35.909Z,26.16
2017-03-29T09:39:45.955Z,26.15
2017-03-29T09:40:56.319Z,26.11
2017-03-29T09:42:06.652Z,26.04
2017-03-29T09:43:16.699Z,26.03
2017-03-29T09:44:26.765Z,26.12
2017-03-29T09:45:37.097Z,26.15
2017-03-29T09:46:47.495Z,26.17
2017-03-29T09:47:57.542Z,26.17
2017-03-29T09:49:07.885Z,26.3
2017-03-29T09:50:17.931Z,26.32
2017-03-29T09:51:27.328Z,26.34
2017-03-29T09:52:37.385Z,26.42
2017-03-29T09:53:47.759Z,26.41
2017-03-29T09:54:58.091Z,26.39
2017-03-29T09:56:08.453Z,26.41
2017-03-29T09:57:18.802Z,26.41
2017-03-29T09:58:29.139Z,26.45
2017-03-29T09:59:39.479Z,26.49
2017-03-29T10:00:49.529Z,26.61
2017-03-29T10:01:59.867Z,26.67
2017-03-29T10:03:09.914Z,26.68
2017-03-29T10:04:19.951Z,26.79
2017-03-29T10:05:30.299Z,26.91
2017-03-29T10:06:40.646Z,26.94
2017-03-29T10:07:50.682Z,26.97
2017-03-29T10:09:01.024Z,26.9
2017-03-29T10:10:11.384Z,26.94
2017-03-29T10:11:21.120Z,26.93
2017-03-29T10:12:31.179Z,26.93
2017-03-29T10:13:41.534Z,26.97
2017-03-29T10:14:51.903Z,26.87
2017-03-29T10:16:02.263Z,26.91
2017-03-29T10:17:12.621Z,26.93
2017-03-29T10:18:22.987Z,26.91
2017-03-29T10:19:33.340Z,26.93
2017-03-29T10:20:43.694Z,27.08
2017-03-29T10:21:53.718Z,27.12
2017-03-29T10:23:03.753Z,27.19
2017-03-29T10:24:13.794Z,27.3
2017-03-29T10:25:24.151Z,27.41
2017-03-29T10:26:34.513Z,27.46
2017-03-29T10:27:44.865Z,27.48
2017-03-29T10:28:54.907Z,27.42
2017-03-29T10:30:05.254Z,27.36
2017-03-29T10:31:15.303Z,27.37
2017-03-29T10:32:25.369Z,27.37
2017-03-29T10:33:35.407Z,27.34
2017-03-29T10:34:45.461Z,27.34
2017-03-29T10:35:55.495Z,27.34
2017-03-29T10:37:05.842Z,27.42
2017-03-29T10:38:16.177Z,27.36
2017-03-29T10:39:26.275Z,27.51
2017-03-29T10:40:36.319Z,27.49
2017-03-29T10:41:46.668Z,27.48
2017-03-29T10:42:57.038Z,27.55
2017-03-29T10:44:07.409Z,27.42
2017-03-29T10:45:17.446Z,27.46
2017-03-29T10:46:27.799Z,27.41
2017-03-29T10:47:38.157Z,27.37
2017-03-29T10:48:48.499Z,27.43
2017-03-29T10:49:58.893Z,27.48
2017-03-29T10:51:09.275Z,27.45
2017-03-29T10:52:19.644Z,27.61
2017-03-29T10:53:29.990Z,27.46
2017-03-29T10:54:40.335Z,27.46
2017-03-29T10:55:50.692Z,27.53
2017-03-29T10:57:00.725Z,27.62
2017-03-29T10:58:10.459Z,27.71
2017-03-29T10:59:20.807Z,27.83
2017-03-29T11:00:30.853Z,27.84
2017-03-29T11:01:40.941Z,27.87
2017-03-29T11:02:51.343Z,27.89
2017-03-29T11:04:01.403Z,27.87
2017-03-29T11:05:11.447Z,27.84
2017-03-29T11:06:21.486Z,27.87
2017-03-29T11:07:31.577Z,27.93
2017-03-29T11:08:41.630Z,28.02
2017-03-29T11:09:51.034Z,27.96
2017-03-29T11:11:01.389Z,27.93
2017-03-29T11:12:11.746Z,28.03
2017-03-29T11:13:21.824Z,28.09
2017-03-29T11:14:32.174Z,28.16
2017-03-29T11:15:42.536Z,28.17
2017-03-29T11:16:52.900Z,28.18
2017-03-29T11:18:03.268Z,28.14
2017-03-29T11:19:13.642Z,28.21
2017-03-29T11:20:23.392Z,28.3
2017-03-29T11:21:33.461Z,28.03
2017-03-29T11:22:43.818Z,28.11
2017-03-29T11:23:54.181Z,28.21
2017-03-29T11:25:04.879Z,28.18
2017-03-29T11:26:15.231Z,27.99
2017-03-29T11:27:25.593Z,27.48
2017-03-29T11:34:56.734Z,28.46
2017-03-29T11:36:06.775Z,28.49
2017-03-29T11:37:17.178Z,28.63
2017-03-29T11:38:27.547Z,28.79
2017-03-29T11:39:37.912Z,28.82
2017-03-29T11:40:48.267Z,28.91
2017-03-29T11:41:58.305Z,29.06
2017-03-29T11:43:08.355Z,29.11
2017-03-29T11:44:18.376Z,29.21
2017-03-29T11:45:28.728Z,28.98
2017-03-29T11:46:38.447Z,28.42
2017-03-29T11:47:48.202Z,28.05
2017-03-29T11:48:58.247Z,28.23
2017-03-29T11:50:08.607Z,28.46
2017-03-29T11:51:18.655Z,28.57
2017-03-29T11:52:29.047Z,28.68
2017-03-29T11:53:39.111Z,28.68
2017-03-29T11:54:49.437Z,28.8
2017-03-29T11:55:59.489Z,28.85
2017-03-29T11:57:09.531Z,28.85
2017-03-29T11:58:19.869Z,28.97
2017-03-29T11:59:30.206Z,29.06
2017-03-29T12:00:40.243Z,29.15
2017-03-29T12:01:49.995Z,29.23
2017-03-29T12:03:00.344Z,29.21
2017-03-29T12:04:10.405Z,29.33
2017-03-29T12:05:20.444Z,29.42
2017-03-29T12:06:30.810Z,29.42
2017-03-29T12:07:40.843Z,29.4
2017-03-29T12:08:50.800Z,29.26
2017-03-29T12:10:01.155Z,29.24
2017-03-29T12:11:11.181Z,28.9
2017-03-29T12:12:21.512Z,28.57
2017-03-29T12:13:31.868Z,28.65
2017-03-29T12:14:41.909Z,28.91
2017-03-29T12:15:52.284Z,29.1
2017-03-29T12:17:02.621Z,29.24
2017-03-29T12:18:12.986Z,29.35
2017-03-29T12:19:23.328Z,29.33
2017-03-29T12:20:33.691Z,29.36
2017-03-29T12:21:43.732Z,29.39
2017-03-29T12:22:54.079Z,29.3
2017-03-29T12:24:04.440Z,29.24
2017-03-29T12:25:14.796Z,29.18
2017-03-29T12:26:24.823Z,29.11
2017-03-29T12:27:35.171Z,29.2
2017-03-29T12:28:45.538Z,29.2
2017-03-29T12:29:55.610Z,29.23
2017-03-29T12:31:05.975Z,29.24
2017-03-29T12:32:16.018Z,29.14
2017-03-29T12:33:26.373Z,29.13
2017-03-29T12:34:36.425Z,29.18
2017-03-29T12:35:46.482Z,29.1
2017-03-29T12:36:56.828Z,28.73
2017-03-29T12:38:07.177Z,28.67
2017-03-29T12:39:17.527Z,28.91
2017-03-29T12:40:27.899Z,29.03
2017-03-29T12:41:37.941Z,28.7
2017-03-29T12:42:47.970Z,29.01
2017-03-29T12:43:57.710Z,29.2
2017-03-29T12:45:07.760Z,29.3
2017-03-29T12:46:18.112Z,29.01
2017-03-29T12:47:28.469Z,28.88
2017-03-29T12:48:38.816Z,28.42
2017-03-29T12:49:48.857Z,28.12
2017-03-29T12:50:59.211Z,28.21
2017-03-29T12:52:09.563Z,28.41
2017-03-29T12:53:19.899Z,28.7
2017-03-29T12:54:30.250Z,28.9
2017-03-29T12:55:40.291Z,28.92
2017-03-29T12:56:50.662Z,29.1
2017-03-29T12:58:01.014Z,29.11
2017-03-29T12:59:11.373Z,29.15
2017-03-29T13:00:21.413Z,29.17
2017-03-29T13:01:31.448Z,29.14
2017-03-29T13:02:41.807Z,29.13
2017-03-29T13:03:52.159Z,29.18
2017-03-29T13:05:02.504Z,29.26
2017-03-29T13:06:12.220Z,29.38
2017-03-29T13:07:22.570Z,29.24
2017-03-29T13:08:32.919Z,28.98
2017-03-29T13:09:42.655Z,28.8
2017-03-29T13:10:53.009Z,28.97
2017-03-29T13:12:03.346Z,29.5
2017-03-29T13:13:13.081Z,29.67
2017-03-29T13:14:23.434Z,29.77
2017-03-29T13:15:33.474Z,29.75
2017-03-29T13:16:43.854Z,29.6
2017-03-29T13:17:54.233Z,29.45
2017-03-29T13:19:04.333Z,29.85
2017-03-29T13:20:14.700Z,30.04
2017-03-29T13:21:24.725Z,29.81
2017-03-29T13:22:35.083Z,29.65
2017-03-29T13:23:45.448Z,29.47
2017-03-29T13:24:55.489Z,29.4
2017-03-29T13:26:05.865Z,29.35
2017-03-29T13:27:15.599Z,29.23
2017-03-29T13:28:25.636Z,29.01
2017-03-29T13:29:35.990Z,28.91
2017-03-29T13:30:46.036Z,29.24
2017-03-29T13:31:56.389Z,29.03
2017-03-29T13:33:06.748Z,28.8
2017-03-29T13:34:17.105Z,28.7
2017-03-29T13:35:27.149Z,28.49
2017-03-29T13:36:37.181Z,28.35
2017-03-29T13:37:47.235Z,28.08
2017-03-29T13:38:57.578Z,28.05
2017-03-29T13:40:07.660Z,27.94
2017-03-29T13:41:17.708Z,27.86
2017-03-29T13:42:28.070Z,27.76
2017-03-29T13:43:38.427Z,27.65
2017-03-29T13:44:48.778Z,28.09
2017-03-29T13:45:59.120Z,28.39
2017-03-29T13:47:09.162Z,28.51
2017-03-29T13:48:19.202Z,28.41
2017-03-29T13:49:29.538Z,28.54
2017-03-29T13:50:39.906Z,28.67
2017-03-29T13:51:50.288Z,28.85
2017-03-29T13:53:00.640Z,28.68
2017-03-29T13:54:10.671Z,28.39
2017-03-29T13:55:21.033Z,28.16
2017-03-29T13:56:31.070Z,27.87
2017-03-29T13:57:41.123Z,27.76
2017-03-29T13:58:51.160Z,27.53
2017-03-29T14:00:00.885Z,27.38
2017-03-29T14:01:11.243Z,27.27
2017-03-29T14:02:21.603Z,27.12
2017-03-29T14:03:31.655Z,27.05
2017-03-29T14:04:42.045Z,26.96
2017-03-29T14:05:52.395Z,26.76
2017-03-29T14:07:02.445Z,26.74
2017-03-29T14:08:12.786Z,26.64
2017-03-29T14:09:23.127Z,26.69
2017-03-29T14:10:32.848Z,26.5
2017-03-29T14:11:43.211Z,26.5
2017-03-29T14:12:53.565Z,26.63
2017-03-29T14:14:03.642Z,26.67
2017-03-29T14:15:13.692Z,27.09
2017-03-29T14:16:23.735Z,27.53
2017-03-29T14:17:33.775Z,27.9
2017-03-29T14:18:43.842Z,27.86
2017-03-29T14:19:54.197Z,27.64
2017-03-29T14:21:04.551Z,27.45
2017-03-29T14:22:14.906Z,27.48
2017-03-29T14:23:25.271Z,27.61
2017-03-29T14:24:35.615Z,27.33
2017-03-29T14:25:45.963Z,26.93
2017-03-29T14:26:56.009Z,26.68
2017-03-29T14:28:06.373Z,26.45
2017-03-29T14:29:16.716Z,26.32
2017-03-29T14:30:26.364Z,26.17
2017-03-29T14:31:36.738Z,25.99
2017-03-29T14:32:47.086Z,25.86
2017-03-29T14:33:57.419Z,25.84
2017-03-29T14:35:07.463Z,25.88
2017-03-29T14:36:17.824Z,26.11
2017-03-29T14:37:28.180Z,26.41
2017-03-29T14:38:38.234Z,26.59
2017-03-29T14:39:48.290Z,26.94
2017-03-29T14:40:58.328Z,27
2017-03-29T14:42:08.670Z,27.27
2017-03-29T14:43:19.008Z,27.13
2017-03-29T14:44:29.350Z,27.27
2017-03-29T14:45:39.700Z,27.09
2017-03-29T14:46:50.041Z,27.08
2017-03-29T14:48:00.400Z,27.37
2017-03-29T14:49:10.428Z,27.23
2017-03-29T14:50:20.472Z,27.38
2017-03-29T14:51:30.816Z,27.11
2017-03-29T14:52:40.541Z,27.42
2017-03-29T14:53:50.890Z,27.52
2017-03-29T14:55:00.926Z,27.48
2017-03-29T14:56:11.272Z,27.64
2017-03-29T14:57:21.306Z,27.72
2017-03-29T14:58:31.646Z,27.83
2017-03-29T14:59:41.667Z,27.89
2017-03-29T15:00:52.021Z,27.98
2017-03-29T15:02:02.382Z,28.05
2017-03-29T15:03:12.726Z,28.09
2017-03-29T15:04:23.086Z,28.12
2017-03-29T15:05:33.131Z,28.16
2017-03-29T15:06:43.488Z,28.12
2017-03-29T15:07:53.839Z,28.09
2017-03-29T15:09:04.174Z,28.01
2017-03-29T15:10:14.526Z,27.99
2017-03-29T15:11:24.878Z,27.98
2017-03-29T15:12:34.907Z,27.9
2017-03-29T15:13:45.265Z,27.87
2017-03-29T15:14:55.620Z,27.61
2017-03-29T15:16:06.016Z,27.62
2017-03-29T15:17:16.379Z,27.65
2017-03-29T15:18:26.425Z,27.65
2017-03-29T15:19:36.775Z,27.62
2017-03-29T15:20:46.812Z,27.48
2017-03-29T15:21:56.854Z,27.37
2017-03-29T15:23:07.213Z,27.27
2017-03-29T15:24:17.260Z,27.04
2017-03-29T15:25:27.605Z,26.82
2017-03-29T15:26:37.664Z,26.45
2017-03-29T15:27:47.689Z,26.26
2017-03-29T15:28:58.042Z,26.19
2017-03-29T15:30:08.399Z,25.89
2017-03-29T15:31:18.441Z,25.84
2017-03-29T15:32:28.800Z,25.97
2017-03-29T15:33:39.155Z,25.91
2017-03-29T15:34:49.519Z,25.91
2017-03-29T15:35:59.872Z,25.97
2017-03-29T15:37:10.224Z,25.99
2017-03-29T15:38:20.571Z,25.91
2017-03-29T15:39:30.609Z,25.96
2017-03-29T15:40:40.962Z,25.88
2017-03-29T15:41:51.350Z,25.96
2017-03-29T15:43:01.707Z,25.97
2017-03-29T15:44:12.053Z,26.04